• Join FlightAware (Why Join?)
  • Login
  • US Flag 
05:34AM EDT


 

Airport Tracker/Info


-or-


 

Live Flight TrackerFlight Track Log ✈ AAY894 ✈ 20-Feb-2014 ✈ KPIE - KIAG

Flight Track Log - Related Links

Times and Time Zones

All times are in EST time to prevent confusion due to time zone crossing. See the AAY894 flight status page for this flight to view local times or setup timezone preferences in your user account.

Time Position Orientation Groundspeed Altitude Reporting Facility
EST Latitude Longitude Course Direction KTS MPH feet Rate Location/Type
08:27AM 27.9000 -82.6833 North 152 175 900  Level Tampa TRACON
08:28AM 27.8333 -82.7000 192° South 210 242 2,000 1,620 Climbing Tampa TRACON
08:30AM 27.9494 -82.7211 351° North 277 319 6,200 2,400 Climbing Jacksonville Center
08:31AM 28.0289 -82.6975 15° North 283 326 9,100 2,340 Climbing Jacksonville Center
08:32AM 28.1186 -82.6925 North 301 346 10,900 1,680 Climbing Jacksonville Center
08:33AM 28.5806 -82.6500 North  Level FlightAware Approximate
08:33AM 28.2250 -82.6875 North 337 388 12,500  Level Jacksonville Center
08:34AM 28.3439 -82.6828 North 372 428 15,200 2,400 Climbing Jacksonville Center
08:35AM 28.4606 -82.6753 North 400 460 17,400 2,100 Climbing Jacksonville Center
08:36AM 28.5797 -82.6656 North 418 481 19,400 1,740 Climbing Jacksonville Center
08:37AM 28.6778 -82.6583 North 424 488 20,900 1,560 Climbing Jacksonville Center
08:38AM 28.8092 -82.6533 North 424 488 22,600 1,980 Climbing Jacksonville Center
08:39AM 28.9511 -82.6458 North 442 509 24,900 1,680 Climbing Jacksonville Center
08:40AM 29.0764 -82.6361 North 448 516 26,000 1,440 Climbing Jacksonville Center
08:41AM 29.2014 -82.6286 North 448 516 27,800 1,800 Climbing Jacksonville Center
08:42AM 29.3247 -82.6211 North 448 516 29,600 1,080 Climbing Jacksonville Center
08:43AM 29.4458 -82.6136 North 437 503 30,000 360 Climbing Jacksonville Center
08:44AM 29.5689 -82.6061 North 442 509 30,400 720 Climbing Jacksonville Center
08:45AM 29.6900 -82.5986 North 437 503 31,500 1,020 Climbing Jacksonville Center
08:46AM 29.8131 -82.5911 North 437 503 32,500 720 Climbing Jacksonville Center
08:47AM 29.9342 -82.5833 North 437 503 33,000 240 Climbing Jacksonville Center
08:48AM 30.0447 -82.5806 North 437 503 33,000 -60 Level Jacksonville Center
08:49AM 30.1681 -82.5753 North 437 503 32,900  Descending Jacksonville Center
08:50AM 30.2869 -82.5678 North 437 503 33,000  Climbing Jacksonville Center
08:51AM 30.4103 -82.5603 North 437 503 33,000  Level Jacksonville Center
08:52AM 30.5311 -82.5525 North 437 503 33,000 -60 Level Jacksonville Center
08:53AM 30.6544 -82.5472 North 437 503 32,900  Descending Jacksonville Center
08:54AM 30.7756 -82.5444 North 437 503 33,000  Climbing Jacksonville Center
08:55AM 30.8986 -82.5367 North 437 503 33,000  Level Jacksonville Center
08:56AM 31.0219 -82.5314 North 437 503 33,000  Level Jacksonville Center
08:57AM 31.1450 -82.5261 North 437 503 33,000  Level Jacksonville Center
08:58AM 31.2683 -82.5231 North 437 503 33,000  Level Jacksonville Center
08:59AM 31.4039 -82.5128 North 437 503 33,000  Level Jacksonville Center
09:00AM 31.5250 -82.5075 North 437 503 33,000  Level Jacksonville Center
09:02AM 31.7158 -82.4836 North 457 526 33,000  Level Atlanta Center
09:03AM 31.8389 -82.4619 North 457 526 33,000  Level Atlanta Center
09:04AM 31.9594 -82.4428 North 444 511 33,000  Level Atlanta Center
09:05AM 32.0825 -82.4233 North 444 511 33,000  Level Atlanta Center
09:06AM 32.2053 -82.4042 North 444 511 33,000  Level Atlanta Center
09:07AM 32.3242 -82.3847 North 438 504 33,000  Level Atlanta Center
09:08AM 32.4428 -82.3653 North 438 504 33,000  Level Atlanta Center
09:09AM 32.5656 -82.3456 North 438 504 33,000  Level Atlanta Center
09:10AM 32.6886 -82.3283 North 438 504 33,000  Level Atlanta Center
09:11AM 32.8094 -82.3064 North 443 510 33,000  Level Atlanta Center
09:12AM 32.9342 -82.2864 North 443 510 33,000  Level Atlanta Center
09:13AM 33.0550 -82.2692 North 443 510 33,000  Level Atlanta Center
09:14AM 33.1758 -82.2494 North 443 510 33,000  Level Atlanta Center
09:15AM 33.2986 -82.2294 North 443 510 33,000  Level Atlanta Center
09:16AM 33.4153 -82.2097 North 443 510 33,000  Level Atlanta Center
09:17AM 33.5403 -82.1869 North 443 510 33,000  Level Atlanta Center
09:18AM 33.6631 -82.1694 North 443 510 33,000  Level Atlanta Center
09:19AM 33.7733 -82.1494 North 443 510 33,000  Level Atlanta Center
09:20AM 33.8961 -82.1267 North 443 510 33,000  Level Atlanta Center
09:21AM 34.0192 -82.1064 North 443 510 33,000  Level Atlanta Center
09:22AM 34.1419 -82.0861 North 443 510 33,000  Level Atlanta Center
09:23AM 34.2625 -82.0658 North 443 510 33,000  Level Atlanta Center
09:24AM 34.3853 -82.0428 North 443 510 33,000  Level Atlanta Center
09:25AM 34.5061 -82.0222 North 443 510 33,000  Level Atlanta Center
09:26AM 34.6267 -81.9992 North 443 510 33,000  Level Atlanta Center
09:27AM 34.7536 -81.9808 North 448 516 33,000  Level Atlanta Center
09:28AM 34.8764 -81.9575 North 448 516 33,000  Level Atlanta Center
09:29AM 34.9992 -81.9394 North 443 510 33,000  Level Atlanta Center
09:30AM 35.1197 -81.9083 12° North 443 510 33,000  Level Atlanta Center
09:31AM 35.2422 -81.8722 14° North 448 516 33,000  Level Atlanta Center
09:32AM 35.3628 -81.8383 13° North 448 516 33,000  Level Atlanta Center
09:33AM 35.4831 -81.8019 14° North 448 516 33,000  Level Atlanta Center
09:34AM 35.6056 -81.7706 12° North 448 516 33,000  Level Atlanta Center
09:35AM 35.7258 -81.7339 14° North 448 516 33,000  Level Atlanta Center
09:36AM 35.8461 -81.6972 14° North 448 516 33,000  Level Atlanta Center
09:37AM 35.9769 -81.6603 13° North 448 516 33,000  Level Atlanta Center
09:38AM 36.1014 -81.6256 13° North 448 516 33,000  Level Atlanta Center
09:39AM 36.2214 -81.5886 14° North 448 516 33,000  Level Atlanta Center
09:41AM 36.4781 -81.5117 14° North 447 514 33,000  Level Indianapolis Center
09:42AM 36.5986 -81.4756 14° North 447 514 33,000  Level Indianapolis Center
09:43AM 36.7403 -81.4342 13° North 447 514 33,000  Level Indianapolis Center
09:44AM 36.8578 -81.3994 13° North 445 512 33,000  Level Indianapolis Center
09:45AM 36.9781 -81.3642 13° North 444 511 33,000  Level Indianapolis Center
09:46AM 37.0975 -81.3286 13° North 444 511 33,000  Level Indianapolis Center
09:47AM 37.2156 -81.2936 13° North 442 509 33,000  Level Indianapolis Center
09:48AM 37.3444 -81.2550 13° North 440 506 33,000  Level Indianapolis Center
09:49AM 37.4594 -81.2200 14° North 439 505 33,000  Level Indianapolis Center
09:50AM 37.5778 -81.1836 14° North 439 505 33,000  Level Indianapolis Center
09:52AM 37.7183 -81.1408 14° North 441 507 33,000  Level Indianapolis Center
09:53AM 37.8256 -81.1100 13° North 441 507 33,000  Level Indianapolis Center
09:54AM 37.9442 -81.0753 13° North 441 507 33,000  Level Indianapolis Center
09:55AM 38.0867 -81.0353 12° North 441 507 33,000  Level Indianapolis Center
09:56AM 38.2058 -80.9997 13° North 441 507 33,000  Level Indianapolis Center
09:57AM 38.3253 -80.9653 13° North 441 507 33,000  Level Indianapolis Center
09:58AM 38.4433 -80.9303 13° North 440 506 33,000  Level Indianapolis Center
09:59AM 38.5625 -80.8961 13° North 440 506 33,000  Level Indianapolis Center
10:00AM 38.7050 -80.8528 13° North 440 506 33,000  Level Indianapolis Center
10:01AM 38.8233 -80.8189 13° North 440 506 33,000  Level Indianapolis Center
10:02AM 38.9411 -80.7833 13° North 440 506 33,000  Level Indianapolis Center
10:03AM 39.0600 -80.7492 13° North 439 505 33,000  Level Indianapolis Center
10:04AM 39.1783 -80.7125 14° North 439 505 33,000  Level Indianapolis Center
10:05AM 39.2958 -80.6769 13° North 439 505 33,000  Level Indianapolis Center
10:06AM 39.4411 -80.6267 15° North 445 512 33,000  Level Indianapolis Center
10:07AM 39.5594 -80.5747 19° North 448 516 33,000  Level Indianapolis Center
10:08AM 39.6792 -80.5242 18° North 449 517 33,000  Level Indianapolis Center
10:09AM 39.7989 -80.4722 18° North 449 517 33,000  Level Indianapolis Center
10:10AM 39.9186 -80.4225 18° North 451 519 33,000  Level Indianapolis Center
10:11AM 40.0358 -80.3708 19° North 450 518 33,000  Level Indianapolis Center
10:12AM 40.1764 -80.3092 19° North 446 513 33,000  Level Indianapolis Center
10:13AM 40.2931 -80.2611 17° North 446 513 33,000 -180 Level Indianapolis Center
10:14AM 40.4247 -80.2033 18° North 455 524 32,700 -660 Descending Cleveland Center
10:15AM 40.5564 -80.1456 18° North 445 512 31,600 -840 Descending Cleveland Center
10:16AM 40.6767 -80.0939 18° North 454 522 31,000 -480 Descending Cleveland Center
10:17AM 40.7967 -80.0414 18° North 454 522 30,700 -540 Descending Cleveland Center
10:18AM 40.9050 -79.9922 19° North 454 522 29,900 -1,080 Descending Cleveland Center
10:20AM 41.0492 -79.9294 18° North 454 522 28,500 -1,260 Descending Cleveland Center
10:21AM 41.1533 -79.8831 19° North 450 518 27,400 -1,140 Descending Cleveland Center
10:22AM 41.2694 -79.8311 19° North 446 513 26,200 -1,080 Descending Cleveland Center
10:23AM 41.4075 -79.7692 19° North 438 504 25,200 -600 Descending Cleveland Center
10:24AM 41.5208 -79.7172 19° North 434 499 25,000 -120 Descending Cleveland Center
10:25AM 41.6356 -79.6661 18° North 434 499 25,000  Level Cleveland Center
10:26AM 41.7503 -79.6150 18° North 434 499 25,000 -1,080 Level Cleveland Center
10:27AM 41.8644 -79.5611 19° North 434 499 22,800 -2,280 Descending Cleveland Center
10:28AM 41.9767 -79.5103 19° North 426 490 20,400 -2,400 Descending Cleveland Center
10:29AM 42.1094 -79.4506 18° North 421 484 17,900 -2,280 Descending Cleveland Center
10:30AM 42.2200 -79.3986 19° North 421 484 15,800 -1,980 Descending Cleveland Center
10:31AM 42.3308 -79.3481 19° North 421 484 13,900 -1,860 Descending Cleveland Center
10:32AM 42.4381 -79.2983 19° North 412 474 12,100 -1,500 Descending Cleveland Center
10:33AM 42.5439 -79.2475 19° North 382 440 10,900 -1,020 Descending Cleveland Center
10:34AM 42.6386 -79.1961 22° Northeast 330 380 10,000 -1,140 Descending Cleveland Center
10:35AM 42.7122 -79.1569 21° North 298 343 8,600 -1,380 Descending Cleveland Center
10:36AM 42.7861 -79.0964 31° Northeast 303 349 7,200 -780 Descending Cleveland Center
10:37AM 42.8572 -79.0261 36° Northeast 306 352 7,100 -240 Descending Cleveland Center
10:38AM 42.9250 -78.9583 36° Northeast 294 338 6,800 -960 Descending Cleveland Center
10:39AM 42.9925 -78.8922 36° Northeast 289 333 5,200 -1,500 Descending Cleveland Center
10:40AM 43.0500 -78.8397 34° Northeast 248 285 3,800 -1,260 Descending Cleveland Center
10:41AM 43.1008 -78.8383 North 185 213 2,600 -1,200 Descending Cleveland Center
10:42AM 43.1092 -78.8800 285° West 150 173 1,400 -1,200 Descending Cleveland Center
10:44AM 43.1000 -78.9333 26° Northeast  Level FlightAware Approximate
10:51AM 43.1076 -78.9458 26° Northeast  Level Estimated